Time;durP1;ratioP1;P1;durP2;ratioP2;P2;SDS_P1;SDS_P2;PMS_P1;PMS_P2;Temp;Humidity;BMP_temperature;BMP_pressure;BME280_temperature;BME280_humidity;BME280_pressure;Samples;Min_cycle;Max_cycle;Signal;HPM_P1;HPM_P2
2021/11/16 00:00:34;;;;;;;16.90;11.97;;;;;;;;;;4616322;27;20464;-58
2021/11/16 00:02:45;;;;;;;16.77;11.73;;;;;;;;;;4598515;27;20592;-58
2021/11/16 00:04:55;;;;;;;17.47;12.10;;;;;;;;;;4619024;27;20015;-57
2021/11/16 00:07:06;;;;;;;7.80;5.20;;;;;;;;;;4618716;27;20024;-57
2021/11/16 00:09:17;;;;;;;17.00;10.82;;;;;;;;;;4599394;27;20028;-58
2021/11/16 00:11:28;;;;;;;17.83;12.20;;;;;;;;;;4602267;27;20064;-59
2021/11/16 00:13:39;;;;;;;16.43;11.23;;;;;;;;;;4598513;27;20433;-59
2021/11/16 00:15:49;;;;;;;16.63;11.30;;;;;;;;;;4620016;27;20043;-59
2021/11/16 00:18:00;;;;;;;16.33;11.27;;;;;;;;;;4619577;27;20313;-58
2021/11/16 00:20:12;;;;;;;16.83;11.30;;;;;;;;;;4617694;27;20073;-58
2021/11/16 00:22:23;;;;;;;16.13;11.55;;;;;;;;;;4602365;27;20355;-59
2021/11/16 00:24:44;;;;;;;16.63;11.83;;;;;;;;;;4617300;27;20031;-59
2021/11/16 00:26:55;;;;;;;;;;;;;;;;;;4618383;27;20605;-58
2021/11/16 00:29:05;;;;;;;17.20;11.80;;;;;;;;;;4618294;27;19946;-59
2021/11/16 00:31:16;;;;;;;17.40;12.03;;;;;;;;;;4617200;27;20027;-59
2021/11/16 00:33:31;;;;;;;19.13;12.57;;;;;;;;;;4602068;27;20216;-59
2021/11/16 00:35:42;;;;;;;16.50;11.48;;;;;;;;;;4616647;27;20085;-58
2021/11/16 00:37:53;;;;;;;18.60;12.02;;;;;;;;;;4617358;27;20022;-58
2021/11/16 00:40:08;;;;;;;17.33;11.87;;;;;;;;;;4598133;27;20032;-58
2021/11/16 00:42:18;;;;;;;19.35;12.82;;;;;;;;;;4602508;27;20088;-58
2021/11/16 00:44:28;;;;;;;17.37;12.23;;;;;;;;;;4619246;27;20350;-59
2021/11/16 00:46:39;;;;;;;8.00;5.60;;;;;;;;;;4616985;27;20061;-58
2021/11/16 00:48:49;;;;;;;8.47;5.40;;;;;;;;;;4617039;27;20047;-58
2021/11/16 00:51:02;;;;;;;7.73;5.47;;;;;;;;;;4617454;27;20052;-59
2021/11/16 00:53:13;;;;;;;8.10;5.53;;;;;;;;;;4597538;27;20058;-59
2021/11/16 00:55:23;;;;;;;12.07;8.53;;;;;;;;;;4597092;27;20036;-59
2021/11/16 00:57:33;;;;;;;17.97;12.83;;;;;;;;;;4617446;27;31202;-58
2021/11/16 00:59:44;;;;;;;17.80;12.53;;;;;;;;;;4600231;27;20110;-58
2021/11/16 01:01:54;;;;;;;17.10;11.97;;;;;;;;;;4598073;27;20019;-58
2021/11/16 01:04:05;;;;;;;8.37;5.40;;;;;;;;;;4618528;27;22061;-59
2021/11/16 01:06:15;;;;;;;9.13;5.93;;;;;;;;;;4616638;27;20067;-59
2021/11/16 01:08:26;;;;;;;9.07;5.70;;;;;;;;;;4599812;27;20024;-59
2021/11/16 01:10:41;;;;;;;8.23;5.80;;;;;;;;;;4615660;27;27064;-59
2021/11/16 01:12:51;;;;;;;8.80;5.82;;;;;;;;;;4599579;27;20027;-59
2021/11/16 01:15:04;;;;;;;9.20;5.73;;;;;;;;;;4616628;27;20038;-59
2021/11/16 01:17:15;;;;;;;11.70;8.20;;;;;;;;;;4598625;27;20031;-58
2021/11/16 01:19:25;;;;;;;18.53;12.47;;;;;;;;;;4602136;27;20023;-59
2021/11/16 01:21:37;;;;;;;18.50;13.37;;;;;;;;;;4618324;27;20107;-59
2021/11/16 01:23:47;;;;;;;;;;;;;;;;;;4608048;27;20085;-59
2021/11/16 01:26:00;;;;;;;17.23;12.60;;;;;;;;;;4599272;27;19918;-59
2021/11/16 01:28:13;;;;;;;18.77;12.90;;;;;;;;;;4617771;27;20015;-58
2021/11/16 01:30:26;;;;;;;18.15;12.23;;;;;;;;;;4597858;27;20028;-58
2021/11/16 01:32:44;;;;;;;17.67;12.40;;;;;;;;;;4617736;27;20039;-59
2021/11/16 01:34:55;;;;;;;18.48;12.75;;;;;;;;;;4616678;27;20599;-59
2021/11/16 01:37:06;;;;;;;17.65;12.55;;;;;;;;;;4617983;27;20118;-58
2021/11/16 01:39:17;;;;;;;17.40;12.40;;;;;;;;;;4608255;27;20034;-58
2021/11/16 01:41:30;;;;;;;17.97;12.77;;;;;;;;;;4599275;27;20038;-58
2021/11/16 01:43:41;;;;;;;17.33;12.05;;;;;;;;;;4589477;27;20032;-58
2021/11/16 01:45:52;;;;;;;15.13;10.93;;;;;;;;;;4616761;27;20747;-58
2021/11/16 01:48:03;;;;;;;16.37;11.03;;;;;;;;;;4597604;27;20031;-59
2021/11/16 01:50:15;;;;;;;15.38;10.45;;;;;;;;;;4602664;27;20028;-59
2021/11/16 01:52:25;;;;;;;13.82;9.52;;;;;;;;;;4601682;27;20583;-59
2021/11/16 01:54:36;;;;;;;14.97;10.13;;;;;;;;;;4602437;27;20312;-59
2021/11/16 01:56:47;;;;;;;15.65;10.30;;;;;;;;;;4603899;27;20602;-59
2021/11/16 01:58:59;;;;;;;15.93;10.43;;;;;;;;;;4587267;27;20520;-58
2021/11/16 02:01:09;;;;;;;16.35;11.00;;;;;;;;;;4622103;27;20057;-59
2021/11/16 02:03:21;;;;;;;15.70;11.20;;;;;;;;;;4621544;27;20050;-58
2021/11/16 02:05:43;;;;;;;16.15;11.35;;;;;;;;;;4619449;27;20298;-59
2021/11/16 02:07:54;;;;;;;16.65;11.20;;;;;;;;;;4611634;27;20019;-58
2021/11/16 02:10:05;;;;;;;15.30;10.40;;;;;;;;;;4617792;27;21661;-58
2021/11/16 02:12:15;;;;;;;16.02;11.00;;;;;;;;;;4619755;27;20030;-58
2021/11/16 02:14:26;;;;;;;17.47;10.93;;;;;;;;;;4601941;27;20038;-58
2021/11/16 02:16:37;;;;;;;17.37;11.40;;;;;;;;;;4611447;27;20054;-59
2021/11/16 02:18:47;;;;;;;;;;;;;;;;;;4619903;27;20023;-58
2021/11/16 02:20:58;;;;;;;16.45;11.20;;;;;;;;;;4620774;27;19928;-58
2021/11/16 02:23:08;;;;;;;16.33;11.67;;;;;;;;;;4587607;27;20024;-58
2021/11/16 02:25:19;;;;;;;16.83;10.87;;;;;;;;;;4606538;27;20590;-58
2021/11/16 02:27:29;;;;;;;15.63;10.90;;;;;;;;;;4619701;27;20070;-59
2021/11/16 02:29:41;;;;;;;16.40;10.70;;;;;;;;;;4620892;27;20023;-58
2021/11/16 02:31:53;;;;;;;14.95;10.32;;;;;;;;;;4601411;27;20027;-58
2021/11/16 02:34:05;;;;;;;17.38;11.07;;;;;;;;;;4592684;27;20027;-58
2021/11/16 02:36:16;;;;;;;14.57;10.25;;;;;;;;;;4619792;27;20042;-58
2021/11/16 02:38:26;;;;;;;17.02;11.38;;;;;;;;;;4618380;27;20031;-58
2021/11/16 02:40:37;;;;;;;14.88;10.43;;;;;;;;;;4622721;27;20868;-58
2021/11/16 02:42:48;;;;;;;15.60;11.17;;;;;;;;;;4606381;27;20016;-59
2021/11/16 02:44:58;;;;;;;15.77;11.17;;;;;;;;;;4600596;27;20036;-58
2021/11/16 02:47:09;;;;;;;15.40;10.47;;;;;;;;;;4602852;27;20050;-59
2021/11/16 02:49:20;;;;;;;15.47;10.30;;;;;;;;;;4619287;27;20099;-59
2021/11/16 02:51:34;;;;;;;15.30;10.55;;;;;;;;;;4583154;27;21210;-59
2021/11/16 02:53:44;;;;;;;15.82;10.32;;;;;;;;;;4618991;27;20115;-58
2021/11/16 02:55:55;;;;;;;15.60;9.97;;;;;;;;;;4616931;27;36252;-58
2021/11/16 02:58:06;;;;;;;15.45;10.30;;;;;;;;;;4621489;27;20131;-59
2021/11/16 03:00:17;;;;;;;14.85;10.20;;;;;;;;;;4620276;27;20102;-59
2021/11/16 03:02:27;;;;;;;14.35;9.98;;;;;;;;;;4619386;27;20027;-59
2021/11/16 03:04:44;;;;;;;14.70;10.27;;;;;;;;;;4601295;27;20033;-58
2021/11/16 03:06:54;;;;;;;15.13;10.13;;;;;;;;;;4619109;27;20019;-58
2021/11/16 03:09:05;;;;;;;14.97;9.70;;;;;;;;;;4620069;27;20483;-58
2021/11/16 03:11:16;;;;;;;14.93;10.07;;;;;;;;;;4601815;27;20265;-58
2021/11/16 03:13:29;;;;;;;13.43;9.05;;;;;;;;;;4594622;27;20067;-59
2021/11/16 03:15:41;;;;;;;14.23;9.32;;;;;;;;;;4619034;27;20043;-61
2021/11/16 03:17:52;;;;;;;16.05;9.93;;;;;;;;;;4618113;27;20007;-59
2021/11/16 03:20:14;;;;;;;14.55;9.38;;;;;;;;;;4620878;27;20067;-59
2021/11/16 03:22:35;;;;;;;14.50;9.77;;;;;;;;;;4604842;27;20786;-58
2021/11/16 03:24:46;;;;;;;15.68;10.38;;;;;;;;;;4621582;27;20015;-58
2021/11/16 03:26:56;;;;;;;13.68;8.82;;;;;;;;;;4619350;27;20378;-58
2021/11/16 03:29:11;;;;;;;13.23;8.83;;;;;;;;;;4602290;27;20022;-58
2021/11/16 03:33:40;;;;;;;15.60;10.40;;;;;;;;;;4619405;27;20893;-59
2021/11/16 03:35:51;;;;;;;14.63;9.30;;;;;;;;;;4617181;27;20031;-60
2021/11/16 03:38:04;;;;;;;15.93;10.43;;;;;;;;;;4617062;27;20049;-59
2021/11/16 03:40:16;;;;;;;15.73;10.50;;;;;;;;;;4602069;27;20020;-58
2021/11/16 03:42:27;;;;;;;15.57;10.73;;;;;;;;;;4599793;27;20027;-58
2021/11/16 03:44:38;;;;;;;15.27;10.23;;;;;;;;;;4602449;27;20028;-59
2021/11/16 03:46:48;;;;;;;15.70;10.40;;;;;;;;;;4611170;27;20544;-58
2021/11/16 03:48:59;;;;;;;13.93;9.47;;;;;;;;;;4617811;27;20054;-58
2021/11/16 03:51:10;;;;;;;13.57;8.83;;;;;;;;;;4598293;27;20080;-58
2021/11/16 03:53:20;;;;;;;15.07;10.23;;;;;;;;;;4617581;27;20138;-59
2021/11/16 03:55:34;;;;;;;14.93;10.10;;;;;;;;;;4619122;27;20012;-58
2021/11/16 03:57:45;;;;;;;15.88;10.18;;;;;;;;;;4619982;27;20485;-59
2021/11/16 03:59:56;;;;;;;14.02;9.48;;;;;;;;;;4616988;27;20181;-59
2021/11/16 04:02:06;;;;;;;14.20;9.40;;;;;;;;;;4621931;27;22570;-58
2021/11/16 04:04:19;;;;;;;12.73;8.60;;;;;;;;;;4618980;27;20484;-59
2021/11/16 04:06:29;;;;;;;14.13;9.38;;;;;;;;;;4604277;27;20140;-60
2021/11/16 04:08:40;;;;;;;14.07;9.17;;;;;;;;;;4617874;27;20019;-59
2021/11/16 04:10:51;;;;;;;13.63;8.90;;;;;;;;;;4603324;27;20101;-59
2021/11/16 04:13:01;;;;;;;14.83;9.60;;;;;;;;;;4618426;27;20027;-59
2021/11/16 04:15:14;;;;;;;13.77;9.33;;;;;;;;;;4618149;27;20035;-59
2021/11/16 04:17:24;;;;;;;14.65;9.68;;;;;;;;;;4619851;27;20066;-58
2021/11/16 04:19:34;;;;;;;13.13;8.80;;;;;;;;;;4617286;27;26235;-61
2021/11/16 04:21:46;;;;;;;14.27;10.10;;;;;;;;;;4619329;27;20023;-59
2021/11/16 04:23:56;;;;;;;13.27;9.02;;;;;;;;;;4618539;27;20034;-61
2021/11/16 04:26:09;;;;;;;15.00;9.53;;;;;;;;;;4619129;27;20050;-58
2021/11/16 04:28:20;;;;;;;14.60;10.30;;;;;;;;;;4617296;27;20027;-59
2021/11/16 04:30:31;;;;;;;14.25;9.68;;;;;;;;;;4618395;27;20268;-59
2021/11/16 04:32:42;;;;;;;12.60;9.10;;;;;;;;;;4617371;27;20395;-59
2021/11/16 04:34:53;;;;;;;13.90;8.70;;;;;;;;;;4586423;27;20028;-59
2021/11/16 04:37:04;;;;;;;13.07;8.67;;;;;;;;;;4600586;27;20076;-59
2021/11/16 04:39:14;;;;;;;14.25;9.35;;;;;;;;;;4619544;27;20045;-59
2021/11/16 04:41:25;;;;;;;14.83;9.73;;;;;;;;;;4617089;27;20015;-59
2021/11/16 04:43:35;;;;;;;14.40;9.77;;;;;;;;;;4616177;27;20140;-59
2021/11/16 04:45:50;;;;;;;13.13;8.70;;;;;;;;;;4617810;27;20797;-60
2021/11/16 04:48:06;;;;;;;13.98;9.25;;;;;;;;;;4619118;27;20016;-58
2021/11/16 04:50:32;;;;;;;13.93;8.82;;;;;;;;;;4617845;27;20555;-59
2021/11/16 04:52:59;;;;;;;14.93;9.75;;;;;;;;;;4617640;27;20019;-58
2021/11/16 05:02:36;;;;;;;13.85;9.30;;;;;;;;;;4617034;27;20067;-59
2021/11/16 05:04:47;;;;;;;14.73;9.18;;;;;;;;;;4610623;27;20574;-58
2021/11/16 05:06:58;;;;;;;14.47;9.57;;;;;;;;;;4598531;27;20076;-59
2021/11/16 05:09:08;;;;;;;14.70;10.02;;;;;;;;;;4599696;27;20035;-59
2021/11/16 05:11:20;;;;;;;15.00;9.50;;;;;;;;;;4618969;27;20646;-58
2021/11/16 05:13:31;;;;;;;14.27;9.70;;;;;;;;;;4617649;27;20094;-59
2021/11/16 05:15:43;;;;;;;14.47;9.50;;;;;;;;;;4602019;27;33831;-59
2021/11/16 05:17:54;;;;;;;12.95;8.73;;;;;;;;;;4608635;27;20096;-58
2021/11/16 05:20:06;;;;;;;13.88;9.05;;;;;;;;;;4598533;27;20034;-58
2021/11/16 05:22:16;;;;;;;14.40;9.52;;;;;;;;;;4601110;27;20093;-59
2021/11/16 05:24:27;;;;;;;15.13;9.97;;;;;;;;;;4585592;27;20075;-58
2021/11/16 05:26:37;;;;;;;16.40;9.63;;;;;;;;;;4616877;27;20054;-58
2021/11/16 05:28:48;;;;;;;13.73;9.07;;;;;;;;;;4598810;27;20024;-58
2021/11/16 05:30:59;;;;;;;14.83;9.73;;;;;;;;;;4617160;27;20139;-58
2021/11/16 05:33:09;;;;;;;14.35;9.45;;;;;;;;;;4617960;27;20027;-58
2021/11/16 05:35:20;;;;;;;14.70;9.83;;;;;;;;;;4616123;27;20031;-58
2021/11/16 05:37:30;;;;;;;14.30;9.20;;;;;;;;;;4618123;27;20397;-58
2021/11/16 05:39:41;;;;;;;14.27;9.17;;;;;;;;;;4616464;27;20042;-59
2021/11/16 05:41:51;;;;;;;13.90;9.50;;;;;;;;;;4598222;27;20474;-59
2021/11/16 05:44:03;;;;;;;14.03;9.20;;;;;;;;;;4617597;27;20024;-58
2021/11/16 05:46:18;;;;;;;;;;;;;;;;;;4608762;27;20053;-58
2021/11/16 05:48:36;;;;;;;13.88;9.10;;;;;;;;;;4598238;27;19938;-58
2021/11/16 05:50:46;;;;;;;14.57;9.45;;;;;;;;;;4608104;27;20031;-58
2021/11/16 05:52:57;;;;;;;13.80;9.37;;;;;;;;;;4616036;27;20020;-58
2021/11/16 05:55:08;;;;;;;15.00;9.90;;;;;;;;;;4618715;27;20506;-58
2021/11/16 05:57:19;;;;;;;13.75;9.73;;;;;;;;;;4616819;27;20035;-58
2021/11/16 05:59:33;;;;;;;14.87;9.83;;;;;;;;;;4596228;27;20024;-58
2021/11/16 06:01:43;;;;;;;15.80;10.20;;;;;;;;;;4617358;27;20558;-58
2021/11/16 06:03:55;;;;;;;14.40;9.20;;;;;;;;;;4617209;27;20059;-58
2021/11/16 06:06:07;;;;;;;13.52;9.35;;;;;;;;;;4616842;27;20019;-58
2021/11/16 06:08:28;;;;;;;13.68;8.93;;;;;;;;;;4615001;27;20031;-59
2021/11/16 06:10:38;;;;;;;14.68;9.52;;;;;;;;;;4601598;27;20031;-60
2021/11/16 06:12:48;;;;;;;13.43;8.67;;;;;;;;;;4597335;27;20015;-59
2021/11/16 06:14:59;;;;;;;14.83;9.10;;;;;;;;;;4615040;27;20040;-59
2021/11/16 06:17:09;;;;;;;13.33;8.70;;;;;;;;;;4614880;27;20518;-59
2021/11/16 06:19:24;;;;;;;13.10;8.30;;;;;;;;;;4616628;27;20112;-59
2021/11/16 06:21:34;;;;;;;12.63;8.50;;;;;;;;;;4597442;27;20024;-59
2021/11/16 06:23:45;;;;;;;12.23;8.10;;;;;;;;;;4587988;27;20031;-60
2021/11/16 06:25:56;;;;;;;13.82;9.23;;;;;;;;;;4616670;27;20026;-59
2021/11/16 06:28:07;;;;;;;14.63;9.43;;;;;;;;;;4615138;27;20027;-59
2021/11/16 06:30:17;;;;;;;13.07;8.63;;;;;;;;;;4608145;27;20092;-59
2021/11/16 06:32:28;;;;;;;12.67;8.93;;;;;;;;;;4599785;27;20024;-59
2021/11/16 06:34:38;;;;;;;12.73;8.40;;;;;;;;;;4617245;27;20142;-59
2021/11/16 06:36:49;;;;;;;14.23;9.10;;;;;;;;;;4619588;27;20050;-60
2021/11/16 06:39:01;;;;;;;14.00;9.13;;;;;;;;;;4618903;27;20031;-59
2021/11/16 06:41:12;;;;;;;13.73;8.65;;;;;;;;;;4599095;27;20035;-59
2021/11/16 06:43:28;;;;;;;14.97;9.07;;;;;;;;;;4618019;27;27061;-59
2021/11/16 06:45:38;;;;;;;14.85;9.60;;;;;;;;;;4620273;27;20498;-59
2021/11/16 06:47:49;;;;;;;13.57;9.17;;;;;;;;;;4617890;27;21083;-59
2021/11/16 06:49:59;;;;;;;13.57;8.67;;;;;;;;;;4601733;27;20073;-58
2021/11/16 06:52:10;;;;;;;13.27;8.70;;;;;;;;;;4619573;27;20072;-58
2021/11/16 06:54:23;;;;;;;14.17;8.90;;;;;;;;;;4618999;27;20027;-59
2021/11/16 06:56:33;;;;;;;13.85;9.23;;;;;;;;;;4602335;27;20039;-58
2021/11/16 06:58:44;;;;;;;13.97;8.83;;;;;;;;;;4618430;27;20031;-58
2021/11/16 07:00:55;;;;;;;13.20;9.07;;;;;;;;;;4599173;27;20486;-58
2021/11/16 07:03:05;;;;;;;12.27;8.65;;;;;;;;;;4618792;27;20027;-58
2021/11/16 07:05:16;;;;;;;12.03;8.37;;;;;;;;;;4619396;27;20184;-58
2021/11/16 07:07:26;;;;;;;12.03;8.23;;;;;;;;;;4618490;27;20100;-58
2021/11/16 07:09:39;;;;;;;14.33;8.90;;;;;;;;;;4597891;27;31202;-58
2021/11/16 07:11:53;;;;;;;13.38;8.20;;;;;;;;;;4619107;27;20023;-58
2021/11/16 07:14:08;;;;;;;11.60;8.50;;;;;;;;;;4619060;27;20038;-58
2021/11/16 07:16:19;;;;;;;12.25;8.25;;;;;;;;;;4598843;27;20651;-58
2021/11/16 07:18:29;;;;;;;12.00;7.97;;;;;;;;;;4600931;27;20148;-58
2021/11/16 07:20:43;;;;;;;12.30;7.83;;;;;;;;;;4618855;27;20724;-58
2021/11/16 07:22:53;;;;;;;12.57;8.20;;;;;;;;;;4618463;27;20540;-58
2021/11/16 07:25:10;;;;;;;12.77;8.17;;;;;;;;;;4618804;27;20027;-58
2021/11/16 07:27:30;;;;;;;13.15;8.40;;;;;;;;;;4610298;27;20812;-58
2021/11/16 07:29:44;;;;;;;11.63;7.88;;;;;;;;;;4609677;27;20023;-58
2021/11/16 07:31:56;;;;;;;11.93;8.27;;;;;;;;;;4617567;27;20014;-58
2021/11/16 07:34:18;;;;;;;12.55;7.88;;;;;;;;;;4600035;27;20031;-58
2021/11/16 07:36:29;;;;;;;12.40;8.10;;;;;;;;;;4599966;27;20054;-58
2021/11/16 07:38:39;;;;;;;11.37;7.67;;;;;;;;;;4618896;27;27741;-58
2021/11/16 07:40:50;;;;;;;12.63;8.00;;;;;;;;;;4599526;27;20024;-58
2021/11/16 07:43:07;;;;;;;12.97;8.07;;;;;;;;;;4599704;27;20028;-58
2021/11/16 07:45:45;;;;;;;12.32;8.20;;;;;;;;;;4618358;27;20098;-58
2021/11/16 07:47:59;;;;;;;12.35;8.32;;;;;;;;;;4613883;27;20569;-58
2021/11/16 07:50:28;;;;;;;12.20;7.55;;;;;;;;;;4597447;27;20332;-58
2021/11/16 07:52:39;;;;;;;12.32;8.05;;;;;;;;;;4619592;27;20026;-58
2021/11/16 07:54:49;;;;;;;10.53;7.33;;;;;;;;;;4617534;27;20023;-58
2021/11/16 07:57:04;;;;;;;12.27;7.73;;;;;;;;;;4598035;27;20507;-58
2021/11/16 07:59:17;;;;;;;13.27;8.30;;;;;;;;;;4609695;27;20549;-58
2021/11/16 08:01:39;;;;;;;12.50;8.13;;;;;;;;;;4599867;27;20034;-58
2021/11/16 08:04:00;;;;;;;12.38;7.72;;;;;;;;;;4600404;27;20038;-58
2021/11/16 08:10:47;;;;;;;11.48;7.45;;;;;;;;;;4598408;27;20039;-58
2021/11/16 08:13:13;;;;;;;11.27;7.32;;;;;;;;;;4597572;27;20023;-58
2021/11/16 08:15:24;;;;;;;11.13;7.30;;;;;;;;;;4618749;27;20556;-59
2021/11/16 08:17:36;;;;;;;11.83;7.47;;;;;;;;;;4616464;27;20077;-58
2021/11/16 08:19:59;;;;;;;10.90;7.07;;;;;;;;;;4617104;27;20073;-58
2021/11/16 08:22:13;;;;;;;11.48;7.35;;;;;;;;;;4603236;27;20702;-58
2021/11/16 08:24:29;;;;;;;11.55;7.22;;;;;;;;;;4617415;27;20061;-58
2021/11/16 08:26:50;;;;;;;10.82;7.25;;;;;;;;;;4584392;27;20008;-58
2021/11/16 08:29:01;;;;;;;11.10;7.25;;;;;;;;;;4608092;27;20031;-58
2021/11/16 08:31:13;;;;;;;;;;;;;;;;;;4609523;27;20718;-59
2021/11/16 08:33:24;;;;;;;10.77;7.30;;;;;;;;;;4601208;27;19903;-60
2021/11/16 08:35:35;;;;;;;10.63;7.30;;;;;;;;;;4602128;27;20019;-57
2021/11/16 08:37:47;;;;;;;11.57;7.35;;;;;;;;;;4616500;27;20743;-58
2021/11/16 08:40:01;;;;;;;11.38;7.45;;;;;;;;;;4618895;27;20661;-57
2021/11/16 08:42:23;;;;;;;10.30;6.53;;;;;;;;;;4617528;27;20114;-57
2021/11/16 08:44:46;;;;;;;10.43;7.00;;;;;;;;;;4602085;27;20117;-57
2021/11/16 08:47:07;;;;;;;10.20;6.53;;;;;;;;;;4590923;27;20028;-57
2021/11/16 08:49:32;;;;;;;10.90;7.50;;;;;;;;;;4615589;27;20964;-59
2021/11/16 08:51:43;;;;;;;10.45;7.03;;;;;;;;;;4589918;27;20308;-60
2021/11/16 08:53:54;;;;;;;11.18;7.57;;;;;;;;;;4596241;27;20028;-58
2021/11/16 08:56:12;;;;;;;10.53;6.90;;;;;;;;;;4600756;27;20499;-59
2021/11/16 08:58:28;;;;;;;9.63;6.72;;;;;;;;;;4600621;27;20027;-57
2021/11/16 09:00:42;;;;;;;10.60;7.07;;;;;;;;;;4615437;27;20091;-57
2021/11/16 09:03:02;;;;;;;11.55;7.60;;;;;;;;;;4614550;27;20125;-57
2021/11/16 09:05:17;;;;;;;11.43;7.55;;;;;;;;;;4601057;27;20043;-57
2021/11/16 09:07:29;;;;;;;11.68;7.63;;;;;;;;;;4586989;27;20421;-58
2021/11/16 09:10:03;;;;;;;11.07;6.93;;;;;;;;;;4596435;27;20089;-59
2021/11/16 09:12:15;;;;;;;11.05;7.57;;;;;;;;;;4616695;27;20031;-58
2021/11/16 09:14:27;;;;;;;10.45;7.35;;;;;;;;;;4600152;27;20150;-60
2021/11/16 09:16:43;;;;;;;11.18;7.13;;;;;;;;;;4616663;27;20099;-58
2021/11/16 09:18:54;;;;;;;10.50;7.22;;;;;;;;;;4598042;27;21149;-58
2021/11/16 09:21:17;;;;;;;10.00;6.53;;;;;;;;;;4617399;27;20062;-57
2021/11/16 09:23:39;;;;;;;11.35;7.22;;;;;;;;;;4615965;27;20602;-58
2021/11/16 09:25:52;;;;;;;10.55;6.82;;;;;;;;;;4598219;27;20118;-58
2021/11/16 09:28:26;;;;;;;11.32;7.22;;;;;;;;;;4596147;27;20020;-58
2021/11/16 09:30:40;;;;;;;10.38;6.72;;;;;;;;;;4616826;27;20062;-58
2021/11/16 09:33:11;;;;;;;11.07;7.28;;;;;;;;;;4614835;27;20019;-58
2021/11/16 09:35:21;;;;;;;11.43;7.70;;;;;;;;;;4602218;27;20023;-58
2021/11/16 09:37:38;;;;;;;11.53;7.60;;;;;;;;;;4616909;27;20289;-58
2021/11/16 09:39:51;;;;;;;10.52;7.18;;;;;;;;;;4599288;27;20078;-57
2021/11/16 09:42:05;;;;;;;10.98;7.57;;;;;;;;;;4607798;27;20052;-58
2021/11/16 09:44:21;;;;;;;10.63;7.10;;;;;;;;;;4600967;27;20646;-58
2021/11/16 09:46:33;;;;;;;10.57;6.70;;;;;;;;;;4617353;27;20096;-58
2021/11/16 09:48:44;;;;;;;10.23;7.28;;;;;;;;;;4584693;27;20028;-58
2021/11/16 09:50:56;;;;;;;10.93;7.45;;;;;;;;;;4618441;27;20771;-59
2021/11/16 09:53:15;;;;;;;10.90;6.95;;;;;;;;;;4596250;27;20027;-58
2021/11/16 09:55:33;;;;;;;10.88;6.80;;;;;;;;;;4618166;27;20031;-58
2021/11/16 09:58:02;;;;;;;11.35;6.97;;;;;;;;;;4596477;27;20040;-58
2021/11/16 10:00:15;;;;;;;11.57;7.13;;;;;;;;;;4619742;27;20023;-58
2021/11/16 10:02:28;;;;;;;9.95;6.82;;;;;;;;;;4616715;27;21284;-58
2021/11/16 10:04:46;;;;;;;10.35;6.53;;;;;;;;;;4601401;27;20077;-58
2021/11/16 10:06:56;;;;;;;11.35;6.97;;;;;;;;;;4598344;27;20122;-58
2021/11/16 10:09:08;;;;;;;9.97;6.53;;;;;;;;;;4617441;27;20027;-58
2021/11/16 10:11:21;;;;;;;10.15;6.55;;;;;;;;;;4593886;27;20241;-58
2021/11/16 10:13:31;;;;;;;9.50;6.30;;;;;;;;;;4604919;27;20109;-58
2021/11/16 10:15:45;;;;;;;12.07;7.43;;;;;;;;;;4619885;27;20026;-58
2021/11/16 10:17:56;;;;;;;9.98;6.63;;;;;;;;;;4620651;27;20026;-58
2021/11/16 10:20:07;;;;;;;10.20;6.53;;;;;;;;;;4619743;27;20019;-58
2021/11/16 10:22:18;;;;;;;9.90;6.28;;;;;;;;;;4618487;27;21632;-58
2021/11/16 10:24:32;;;;;;;9.57;6.50;;;;;;;;;;4620583;27;20106;-58
2021/11/16 10:26:42;;;;;;;9.35;6.40;;;;;;;;;;4598710;27;21073;-58
2021/11/16 10:28:53;;;;;;;10.90;6.60;;;;;;;;;;4619277;27;20106;-58
2021/11/16 10:31:04;;;;;;;9.47;6.50;;;;;;;;;;4618159;27;20050;-58
2021/11/16 10:33:24;;;;;;;9.52;6.63;;;;;;;;;;4619766;27;20558;-58
2021/11/16 10:35:57;;;;;;;11.02;6.65;;;;;;;;;;4609228;27;21440;-58
2021/11/16 10:38:11;;;;;;;9.90;6.28;;;;;;;;;;4618987;27;20851;-57
2021/11/16 10:40:24;;;;;;;9.85;6.25;;;;;;;;;;4621439;27;20847;-58
2021/11/16 10:42:42;;;;;;;9.77;6.18;;;;;;;;;;4618093;27;20506;-58
2021/11/16 10:44:59;;;;;;;9.73;6.25;;;;;;;;;;4618454;27;20139;-58
2021/11/16 10:47:10;;;;;;;10.57;6.35;;;;;;;;;;4601605;27;20027;-58
2021/11/16 10:49:22;;;;;;;9.77;6.73;;;;;;;;;;4618773;27;20027;-58
2021/11/16 10:51:33;;;;;;;10.07;6.55;;;;;;;;;;4600961;27;20510;-58
2021/11/16 10:53:48;;;;;;;;;;;;;;;;;;4601707;27;20630;-58
2021/11/16 10:56:00;;;;;;;11.48;6.75;;;;;;;;;;4601062;27;20446;-57
2021/11/16 10:58:13;;;;;;;10.00;6.38;;;;;;;;;;4599239;27;20198;-58
2021/11/16 11:00:31;;;;;;;11.10;6.97;;;;;;;;;;4618117;27;20023;-58
2021/11/16 11:02:41;;;;;;;9.77;6.15;;;;;;;;;;4619622;27;20027;-58
2021/11/16 11:04:52;;;;;;;10.02;6.25;;;;;;;;;;4619286;27;20028;-58
2021/11/16 11:07:12;;;;;;;9.93;6.50;;;;;;;;;;4618425;27;20069;-58
2021/11/16 11:09:24;;;;;;;9.45;6.38;;;;;;;;;;4602651;27;21747;-58
2021/11/16 11:11:37;;;;;;;11.48;6.90;;;;;;;;;;4591468;27;20024;-59
2021/11/16 11:13:59;;;;;;;10.57;6.70;;;;;;;;;;4617990;27;21676;-57
2021/11/16 11:16:13;;;;;;;10.35;6.95;;;;;;;;;;4600016;27;20035;-58
2021/11/16 11:18:36;;;;;;;10.13;6.63;;;;;;;;;;4592986;27;20086;-58
2021/11/16 11:20:47;;;;;;;10.38;7.07;;;;;;;;;;4617923;27;20030;-58
2021/11/16 11:22:57;;;;;;;9.17;6.13;;;;;;;;;;4584890;27;20024;-58
2021/11/16 11:25:33;;;;;;;9.20;6.20;;;;;;;;;;4618229;27;20016;-58
2021/11/16 11:27:45;;;;;;;9.60;6.50;;;;;;;;;;4602448;27;20055;-58
2021/11/16 11:29:59;;;;;;;9.05;5.78;;;;;;;;;;4618343;27;20561;-58
2021/11/16 11:32:21;;;;;;;10.43;6.82;;;;;;;;;;4609771;27;20019;-58
2021/11/16 11:34:38;;;;;;;11.13;7.05;;;;;;;;;;4609737;27;20035;-58
2021/11/16 11:36:49;;;;;;;11.40;7.13;;;;;;;;;;4619276;27;20328;-58
2021/11/16 11:39:00;;;;;;;10.57;6.57;;;;;;;;;;4619463;27;20384;-58
2021/11/16 11:41:10;;;;;;;10.17;6.60;;;;;;;;;;4592195;27;20035;-57
2021/11/16 11:43:24;;;;;;;9.40;6.47;;;;;;;;;;4599583;27;20047;-58
2021/11/16 11:45:38;;;;;;;10.73;7.00;;;;;;;;;;4618472;27;20048;-58
2021/11/16 11:47:54;;;;;;;9.82;6.43;;;;;;;;;;4609363;27;20802;-58
2021/11/16 11:50:29;;;;;;;10.55;6.90;;;;;;;;;;4619340;27;20016;-58
2021/11/16 11:52:40;;;;;;;10.73;6.65;;;;;;;;;;4620082;27;20791;-58
2021/11/16 11:54:50;;;;;;;10.87;7.10;;;;;;;;;;4610468;27;20027;-58
2021/11/16 11:57:01;;;;;;;9.90;6.83;;;;;;;;;;4598951;27;20039;-58
2021/11/16 11:59:13;;;;;;;11.00;7.43;;;;;;;;;;4599507;27;20057;-58
2021/11/16 12:01:28;;;;;;;10.57;6.50;;;;;;;;;;4600130;27;20020;-58
2021/11/16 12:03:42;;;;;;;10.75;6.75;;;;;;;;;;4599734;27;20027;-58
2021/11/16 12:05:53;;;;;;;10.57;7.00;;;;;;;;;;4616589;27;20049;-58
2021/11/16 12:08:04;;;;;;;9.47;6.13;;;;;;;;;;4617973;27;20030;-58
2021/11/16 12:10:15;;;;;;;11.10;6.65;;;;;;;;;;4616723;27;20152;-58
2021/11/16 12:12:26;;;;;;;10.53;6.90;;;;;;;;;;4616368;27;20015;-58
2021/11/16 12:15:04;;;;;;;10.97;6.93;;;;;;;;;;4617514;27;20035;-58
2021/11/16 12:17:17;;;;;;;9.88;6.63;;;;;;;;;;4614556;27;20051;-58
2021/11/16 12:19:52;;;;;;;11.10;7.15;;;;;;;;;;4601636;27;20019;-57
2021/11/16 12:22:20;;;;;;;10.75;6.90;;;;;;;;;;4615613;27;20026;-58
2021/11/16 12:24:32;;;;;;;11.13;7.00;;;;;;;;;;4617559;27;20027;-58
2021/11/16 12:26:51;;;;;;;10.43;6.97;;;;;;;;;;4616623;27;20029;-58
2021/11/16 12:29:15;;;;;;;10.57;7.13;;;;;;;;;;4608553;27;20715;-58
2021/11/16 12:31:28;;;;;;;10.45;7.07;;;;;;;;;;4598800;27;20586;-58
2021/11/16 12:33:42;;;;;;;11.18;7.18;;;;;;;;;;4617283;27;20026;-58
2021/11/16 12:35:52;;;;;;;10.23;6.70;;;;;;;;;;4616725;27;20027;-58
2021/11/16 12:38:13;;;;;;;9.73;6.30;;;;;;;;;;4615081;27;20019;-57
2021/11/16 12:40:24;;;;;;;12.40;8.23;;;;;;;;;;4608430;27;20612;-58
2021/11/16 12:42:35;;;;;;;9.87;6.57;;;;;;;;;;4600459;27;20074;-58
2021/11/16 12:44:50;;;;;;;10.13;6.53;;;;;;;;;;4616476;27;20076;-58
2021/11/16 12:47:06;;;;;;;11.98;8.43;;;;;;;;;;4618576;27;20798;-58
2021/11/16 12:49:37;;;;;;;10.95;7.15;;;;;;;;;;4617357;27;20029;-58
2021/11/16 12:51:56;;;;;;;10.38;6.95;;;;;;;;;;4615926;27;20600;-58
2021/11/16 12:54:07;;;;;;;9.52;6.47;;;;;;;;;;4591535;27;20034;-58
2021/11/16 12:56:19;;;;;;;;;;;;;;;;;;4619508;27;20581;-58
2021/11/16 12:58:30;;;;;;;9.10;6.28;;;;;;;;;;4615440;27;19927;-58
2021/11/16 13:00:40;;;;;;;10.70;7.07;;;;;;;;;;4597373;27;20043;-58
2021/11/16 13:02:52;;;;;;;10.13;7.00;;;;;;;;;;4616615;27;20696;-58
2021/11/16 13:05:06;;;;;;;9.40;5.82;;;;;;;;;;4617143;27;20033;-58
2021/11/16 13:07:20;;;;;;;9.32;6.20;;;;;;;;;;4617025;27;20019;-58
2021/11/16 13:10:10;;;;;;;11.43;6.50;;;;;;;;;;4593124;27;20052;-58
2021/11/16 13:12:53;;;;;;;8.98;5.70;;;;;;;;;;4615215;27;20043;-58
2021/11/16 13:15:22;;;;;;;8.45;5.72;;;;;;;;;;4580268;27;20232;-58
2021/11/16 13:17:42;;;;;;;9.38;6.18;;;;;;;;;;4616969;27;20047;-58
2021/11/16 13:20:03;;;;;;;9.07;5.55;;;;;;;;;;4618325;27;20819;-58
2021/11/16 13:22:45;;;;;;;10.15;6.30;;;;;;;;;;4615788;27;20034;-58
2021/11/16 13:24:56;;;;;;;10.80;6.10;;;;;;;;;;4614775;27;20044;-57